Time;durP1;ratioP1;P1;durP2;ratioP2;P2;SDS_P1;SDS_P2;PMS_P1;PMS_P2;Temp;Humidity;BMP_temperature;BMP_pressure;BME280_temperature;BME280_humidity;BME280_pressure;Samples;Min_cycle;Max_cycle;Signal;HPM_P1;HPM_P2
2021/05/08 00:02:08;;;;;;;2.72;2.42;;;3.30;99.90;;;;;;1864921;76;21052;-75
2021/05/08 00:04:34;;;;;;;2.95;2.25;;;3.20;99.90;;;;;;1875508;76;21087;-76
2021/05/08 00:07:00;;;;;;;2.50;2.27;;;3.20;99.90;;;;;;1859644;76;21152;-75
2021/05/08 00:09:26;;;;;;;2.77;2.37;;;3.20;99.90;;;;;;1870127;76;21205;-76
2021/05/08 00:11:57;;;;;;;2.83;2.20;;;3.20;99.90;;;;;;1875594;76;21083;-76
2021/05/08 00:14:20;;;;;;;2.40;2.20;;;3.20;99.90;;;;;;1865696;76;21126;-77
2021/05/08 00:16:47;;;;;;;4.25;2.72;;;3.10;99.90;;;;;;1859064;76;21152;-76
2021/05/08 00:19:13;;;;;;;2.52;2.25;;;3.00;99.90;;;;;;1867848;76;21056;-75
2021/05/08 00:21:39;;;;;;;2.35;2.15;;;3.10;99.90;;;;;;1863282;76;21086;-76
2021/05/08 00:24:05;;;;;;;3.17;2.55;;;3.00;99.90;;;;;;1854522;76;21225;-76
2021/05/08 00:26:31;;;;;;;4.67;2.67;;;3.00;99.90;;;;;;1875798;76;21506;-75
2021/05/08 00:28:58;;;;;;;5.25;3.00;;;3.00;99.90;;;;;;1862430;76;21494;-76
2021/05/08 00:31:24;;;;;;;3.35;2.67;;;2.90;99.90;;;;;;1864438;76;21086;-75
2021/05/08 00:33:50;;;;;;;4.05;2.98;;;2.90;99.90;;;;;;1859364;76;21165;-76
2021/05/08 00:36:16;;;;;;;10.00;3.05;;;2.90;99.90;;;;;;1860529;76;21141;-76
2021/05/08 00:38:42;;;;;;;4.90;3.47;;;2.90;99.90;;;;;;1864496;76;21060;-75
2021/05/08 00:41:08;;;;;;;5.10;3.80;;;2.80;99.90;;;;;;1868436;76;21051;-76
2021/05/08 00:43:35;;;;;;;7.28;4.30;;;2.80;99.90;;;;;;1877709;76;21098;-74
2021/05/08 00:46:01;;;;;;;7.10;5.20;;;2.80;99.90;;;;;;1875061;76;21612;-75
2021/05/08 00:48:27;;;;;;;9.33;4.72;;;2.80;99.90;;;;;;1870607;76;21490;-75
2021/05/08 00:50:53;;;;;;;7.45;4.90;;;2.90;99.90;;;;;;1869797;76;21091;-75
2021/05/08 00:53:19;;;;;;;7.37;4.85;;;2.80;99.90;;;;;;1855352;76;21183;-75
2021/05/08 00:55:45;;;;;;;5.72;4.35;;;2.70;99.90;;;;;;1875015;76;21086;-75
2021/05/08 00:58:12;;;;;;;5.30;4.05;;;2.70;99.90;;;;;;1872541;76;21152;-75
2021/05/08 01:03:22;;;;;;;4.33;3.83;;;2.60;99.90;;;;;;1866494;76;21149;-74
2021/05/08 01:05:48;;;;;;;5.53;3.60;;;2.60;99.90;;;;;;1867572;76;21141;-76
2021/05/08 01:08:20;;;;;;;5.35;4.37;;;2.50;99.90;;;;;;1871416;76;21098;-75
2021/05/08 01:10:49;;;;;;;4.40;3.25;;;2.60;99.90;;;;;;1868570;76;21082;-76
2021/05/08 01:13:15;;;;;;;7.37;3.98;;;2.70;99.90;;;;;;1855732;76;21128;-74
2021/05/08 01:15:41;;;;;;;3.17;2.75;;;2.60;99.90;;;;;;1875042;76;21165;-75
2021/05/08 01:18:11;;;;;;;4.17;3.58;;;2.60;99.90;;;;;;1874549;76;21102;-76
2021/05/08 01:20:35;;;;;;;3.98;3.10;;;2.60;99.90;;;;;;1872418;76;21148;-76
2021/05/08 01:23:08;;;;;;;5.53;3.90;;;2.60;99.90;;;;;;1867528;76;21144;-76
2021/05/08 01:25:29;;;;;;;3.98;3.27;;;2.70;99.90;;;;;;1859725;76;21090;-75
2021/05/08 01:27:58;;;;;;;22.05;3.85;;;2.70;99.90;;;;;;1867279;76;21267;-75
2021/05/08 01:30:26;;;;;;;10.25;3.77;;;2.70;99.90;;;;;;1871956;76;21095;-76
2021/05/08 01:32:59;;;;;;;4.75;3.62;;;2.70;99.90;;;;;;1854307;76;21156;-75
2021/05/08 01:35:37;;;;;;;3.92;3.02;;;2.60;99.90;;;;;;1871200;76;21099;-75
2021/05/08 01:38:03;;;;;;;4.28;3.67;;;2.60;99.90;;;;;;1873624;76;21083;-75
2021/05/08 01:40:38;;;;;;;5.25;3.85;;;2.60;99.90;;;;;;1858520;76;21087;-76
2021/05/08 01:42:57;;;;;;;6.87;3.67;;;2.60;99.90;;;;;;1850942;75;21122;-75
2021/05/08 01:45:23;;;;;;;5.78;3.72;;;2.50;99.90;;;;;;1874090;76;21086;-75
2021/05/08 01:47:49;;;;;;;3.52;3.12;;;2.50;99.90;;;;;;1877862;76;21086;-76
2021/05/08 01:50:15;;;;;;;3.50;3.20;;;2.50;99.90;;;;;;1876646;76;21067;-76
2021/05/08 01:52:41;;;;;;;4.20;3.37;;;2.40;99.90;;;;;;1866657;76;21083;-75
2021/05/08 01:55:08;;;;;;;4.17;3.37;;;2.40;99.90;;;;;;1866801;76;21168;-75
2021/05/08 01:57:34;;;;;;;5.97;3.50;;;2.30;99.90;;;;;;1859077;76;21209;-75
2021/05/08 02:00:00;;;;;;;4.37;3.20;;;2.30;99.90;;;;;;1868079;76;21153;-75
2021/05/08 02:02:26;;;;;;;5.70;3.62;;;2.20;99.90;;;;;;1875592;76;21079;-75
2021/05/08 02:04:52;;;;;;;5.47;3.37;;;2.20;99.90;;;;;;1859311;76;21058;-74
2021/05/08 02:07:18;;;;;;;4.45;3.80;;;2.10;99.90;;;;;;1851397;76;21058;-76
2021/05/08 02:09:44;;;;;;;4.03;2.87;;;2.10;99.90;;;;;;1854945;76;21149;-75
2021/05/08 02:12:10;;;;;;;8.28;3.80;;;2.00;99.90;;;;;;1862359;76;21198;-76
2021/05/08 02:14:37;;;;;;;9.50;4.03;;;2.10;99.90;;;;;;1866727;76;21485;-75
2021/05/08 02:17:03;;;;;;;3.83;2.72;;;2.10;99.90;;;;;;1875845;76;21514;-75
2021/05/08 02:19:29;;;;;;;3.85;3.35;;;2.00;99.90;;;;;;1859349;76;21046;-76
2021/05/08 02:21:57;;;;;;;5.92;3.47;;;2.00;99.90;;;;;;1855350;76;21080;-75
2021/05/08 02:24:23;;;;;;;7.67;4.03;;;2.00;99.90;;;;;;1862607;76;21502;-76
2021/05/08 02:26:49;;;;;;;7.03;3.42;;;2.00;99.90;;;;;;1873196;76;21519;-76
2021/05/08 02:29:15;;;;;;;4.25;3.17;;;2.00;99.90;;;;;;1862679;76;21576;-75
2021/05/08 02:31:41;;;;;;;10.72;3.30;;;2.00;99.90;;;;;;1866230;76;21089;-76
2021/05/08 02:34:07;;;;;;;5.08;3.30;;;2.00;99.90;;;;;;1860105;76;21083;-76
2021/05/08 02:36:33;;;;;;;6.35;3.25;;;2.00;99.90;;;;;;1871835;76;21063;-76
2021/05/08 02:39:00;;;;;;;6.45;4.33;;;2.00;99.90;;;;;;1875513;76;21153;-75
2021/05/08 02:41:26;;;;;;;4.50;3.40;;;2.00;99.90;;;;;;1871057;76;21083;-75
2021/05/08 02:43:52;;;;;;;3.62;3.05;;;1.90;99.90;;;;;;1875973;76;21083;-75
2021/05/08 02:46:18;;;;;;;5.28;3.25;;;1.80;99.90;;;;;;1856021;76;21085;-76
2021/05/08 02:48:44;;;;;;;3.50;3.08;;;1.80;99.90;;;;;;1872890;76;21071;-75
2021/05/08 02:51:10;;;;;;;10.58;3.37;;;1.80;99.90;;;;;;1871634;76;21910;-75
2021/05/08 02:53:37;;;;;;;4.70;3.20;;;1.80;99.90;;;;;;1862005;76;21543;-76
2021/05/08 02:56:03;;;;;;;3.87;3.47;;;1.70;99.90;;;;;;1867736;76;21086;-75
2021/05/08 02:58:29;;;;;;;4.42;3.42;;;1.70;99.90;;;;;;1863565;76;21235;-75
2021/05/08 03:00:57;;;;;;;3.55;3.25;;;1.70;99.90;;;;;;1854097;76;21166;-76
2021/05/08 03:03:23;;;;;;;4.65;3.17;;;1.60;99.90;;;;;;1872198;76;21168;-76
2021/05/08 03:05:49;;;;;;;4.42;3.60;;;1.60;99.90;;;;;;1870015;76;21078;-76
2021/05/08 03:08:15;;;;;;;5.62;3.67;;;1.70;99.90;;;;;;1862461;76;21141;-76
2021/05/08 03:10:41;;;;;;;4.28;3.45;;;1.70;99.90;;;;;;1865606;76;21095;-76
2021/05/08 03:13:07;;;;;;;4.75;3.55;;;1.70;99.90;;;;;;1866639;76;21529;-75
2021/05/08 03:15:34;;;;;;;4.67;3.42;;;1.70;99.90;;;;;;1865148;76;21481;-76
2021/05/08 03:18:00;;;;;;;3.98;3.27;;;1.80;99.90;;;;;;1858524;76;21095;-74
2021/05/08 03:20:26;;;;;;;3.80;2.98;;;1.80;99.90;;;;;;1870023;76;21087;-75
2021/05/08 03:22:52;;;;;;;4.50;3.30;;;1.70;99.90;;;;;;1862576;76;21064;-75
2021/05/08 03:25:18;;;;;;;4.17;3.50;;;1.60;99.90;;;;;;1858070;76;21140;-75
2021/05/08 03:27:44;;;;;;;3.40;3.10;;;1.70;99.90;;;;;;1854696;76;21083;-75
2021/05/08 03:30:10;;;;;;;7.20;4.28;;;1.70;99.90;;;;;;1871769;76;21083;-75
2021/05/08 03:32:36;;;;;;;5.15;3.10;;;1.60;99.90;;;;;;1861433;76;21090;-75
2021/05/08 03:35:03;;;;;;;5.00;3.80;;;1.50;99.90;;;;;;1856145;76;21207;-75
2021/05/08 03:37:29;;;;;;;4.95;3.40;;;1.50;99.90;;;;;;1873247;76;21561;-76
2021/05/08 03:39:55;;;;;;;10.90;3.42;;;1.60;99.90;;;;;;1864893;76;21474;-75
2021/05/08 03:42:21;;;;;;;4.92;3.90;;;1.60;99.90;;;;;;1862315;76;21517;-76
2021/05/08 03:44:47;;;;;;;3.20;2.90;;;1.60;99.90;;;;;;1851295;76;21082;-75
2021/05/08 03:47:13;;;;;;;5.80;3.55;;;1.60;99.90;;;;;;1862314;76;21082;-75
2021/05/08 03:49:39;;;;;;;3.55;3.25;;;1.70;99.90;;;;;;1866747;76;21157;-75
2021/05/08 03:52:05;;;;;;;11.40;3.55;;;1.60;99.90;;;;;;1856366;76;21081;-75
2021/05/08 03:54:32;;;;;;;6.15;3.45;;;1.60;99.90;;;;;;1854476;76;21283;-75
2021/05/08 03:56:59;;;;;;;6.12;3.55;;;1.60;99.90;;;;;;1854551;76;21055;-75
2021/05/08 03:59:25;;;;;;;3.62;3.27;;;1.60;99.90;;;;;;1855477;76;21146;-75
2021/05/08 04:01:51;;;;;;;5.35;3.77;;;1.60;99.90;;;;;;1868753;76;21156;-75
2021/05/08 04:04:17;;;;;;;5.12;3.85;;;1.60;99.90;;;;;;1866301;76;21087;-75
2021/05/08 04:06:43;;;;;;;3.87;3.15;;;1.60;99.90;;;;;;1873974;76;21152;-75
2021/05/08 04:09:10;;;;;;;4.62;4.00;;;1.60;99.90;;;;;;1851387;76;21070;-76
2021/05/08 04:11:36;;;;;;;5.53;4.03;;;1.60;99.90;;;;;;1857714;76;21177;-75
2021/05/08 04:14:02;;;;;;;5.58;3.62;;;1.60;99.90;;;;;;1865659;76;21532;-76
2021/05/08 04:16:28;;;;;;;3.92;3.40;;;1.60;99.90;;;;;;1876322;75;21544;-76
2021/05/08 04:18:54;;;;;;;5.95;3.70;;;1.70;99.90;;;;;;1852055;76;21497;-75
2021/05/08 04:21:20;;;;;;;3.27;2.83;;;1.60;99.90;;;;;;1854828;76;21064;-75
2021/05/08 04:23:46;;;;;;;3.70;3.27;;;1.70;99.90;;;;;;1851392;76;21047;-73
2021/05/08 04:26:12;;;;;;;6.10;3.55;;;1.70;99.90;;;;;;1865679;76;21090;-73
2021/05/08 04:28:39;;;;;;;3.37;2.83;;;1.80;99.90;;;;;;1841919;76;21071;-76
2021/05/08 04:31:05;;;;;;;3.60;3.05;;;1.80;99.90;;;;;;1854655;76;21082;-75
2021/05/08 04:33:31;;;;;;;3.22;2.92;;;1.80;99.90;;;;;;1862403;76;21077;-75
2021/05/08 04:35:57;;;;;;;4.55;3.12;;;1.80;99.90;;;;;;1873599;76;21086;-73
2021/05/08 04:38:23;;;;;;;4.30;3.22;;;1.80;99.90;;;;;;1860425;76;21078;-76
2021/05/08 04:40:49;;;;;;;7.72;4.30;;;1.90;99.90;;;;;;1857839;76;21051;-75
2021/05/08 04:43:15;;;;;;;17.30;7.30;;;1.90;99.90;;;;;;1874506;76;21078;-75
2021/05/08 04:45:41;;;;;;;20.43;8.18;;;1.90;99.90;;;;;;1869574;76;21205;-75
2021/05/08 04:48:07;;;;;;;16.62;7.33;;;1.90;99.90;;;;;;1868218;76;21161;-76
2021/05/08 04:50:34;;;;;;;18.48;8.03;;;1.90;99.90;;;;;;1876270;76;21534;-76
2021/05/08 04:53:00;;;;;;;16.27;7.08;;;2.00;99.90;;;;;;1873778;76;21490;-75
2021/05/08 04:55:26;;;;;;;17.73;7.12;;;1.90;99.90;;;;;;1870830;76;21523;-76
2021/05/08 04:57:52;;;;;;;8.70;5.10;;;2.00;99.90;;;;;;1866839;76;21203;-74
2021/05/08 05:00:18;;;;;;;7.00;4.70;;;2.10;99.90;;;;;;1873261;76;21078;-76
2021/05/08 05:02:44;;;;;;;4.47;3.77;;;2.10;99.90;;;;;;1870133;76;21172;-76
2021/05/08 05:05:10;;;;;;;5.08;3.62;;;2.20;99.90;;;;;;1867169;76;21087;-75
2021/05/08 05:07:37;;;;;;;5.92;3.70;;;2.20;99.90;;;;;;1874502;76;21205;-74
2021/05/08 05:10:04;;;;;;;8.05;3.27;;;2.10;99.90;;;;;;1863484;76;21530;-74
2021/05/08 05:12:30;;;;;;;5.00;3.77;;;2.20;99.90;;;;;;1862404;76;21144;-74
2021/05/08 05:14:56;;;;;;;2.92;2.62;;;2.30;99.90;;;;;;1858558;76;21059;-74
2021/05/08 05:17:22;;;;;;;6.08;4.00;;;2.30;99.90;;;;;;1874500;76;21154;-75
2021/05/08 05:19:48;;;;;;;5.92;3.90;;;2.50;99.90;;;;;;1870250;76;21089;-75
2021/05/08 05:22:14;;;;;;;6.75;3.35;;;2.50;99.90;;;;;;1864143;76;21082;-73
2021/05/08 05:24:40;;;;;;;4.35;2.83;;;2.50;99.90;;;;;;1858678;76;21151;-74
2021/05/08 05:27:06;;;;;;;6.33;3.72;;;2.60;99.90;;;;;;1874842;76;21149;-73
2021/05/08 05:29:33;;;;;;;7.05;3.58;;;2.60;99.90;;;;;;1867965;76;21083;-74
2021/05/08 05:31:59;;;;;;;5.70;3.67;;;2.60;99.90;;;;;;1872383;76;21051;-74
2021/05/08 05:34:25;;;;;;;4.60;2.95;;;2.70;99.90;;;;;;1851227;76;21127;-74
2021/05/08 05:36:51;;;;;;;4.37;3.52;;;2.80;99.90;;;;;;1857787;76;21172;-75
2021/05/08 05:39:17;;;;;;;6.33;3.58;;;2.90;99.90;;;;;;1859596;76;21481;-75
2021/05/08 05:41:43;;;;;;;4.37;2.98;;;3.00;99.90;;;;;;1857936;76;21518;-75
2021/05/08 05:44:09;;;;;;;5.60;3.10;;;3.10;99.90;;;;;;1851371;76;21497;-74
2021/05/08 05:46:35;;;;;;;6.85;3.35;;;3.10;99.90;;;;;;1873500;76;21087;-75
2021/05/08 05:49:02;;;;;;;4.95;3.47;;;3.30;99.90;;;;;;1875195;76;21205;-75
2021/05/08 05:51:31;;;;;;;4.25;3.35;;;3.50;99.90;;;;;;1875660;76;21063;-73
2021/05/08 05:53:57;;;;;;;6.62;2.98;;;3.70;99.90;;;;;;1857657;76;21050;-75
2021/05/08 05:56:23;;;;;;;8.55;3.40;;;3.90;99.90;;;;;;1872142;76;21224;-75
2021/05/08 05:58:49;;;;;;;4.17;3.27;;;4.10;99.90;;;;;;1851825;76;21482;-75
2021/05/08 06:01:15;;;;;;;4.72;3.52;;;4.10;99.90;;;;;;1873104;76;21556;-75
2021/05/08 06:03:41;;;;;;;3.27;2.98;;;4.40;99.90;;;;;;1867818;76;21518;-75
2021/05/08 06:06:07;;;;;;;4.80;3.33;;;4.60;99.90;;;;;;1870046;76;21078;-75
2021/05/08 06:08:33;;;;;;;5.78;3.00;;;4.80;99.90;;;;;;1846460;76;21114;-76
2021/05/08 06:11:00;;;;;;;3.40;3.02;;;4.90;99.90;;;;;;1862562;76;21078;-77
2021/05/08 06:13:27;;;;;;;10.13;3.58;;;5.10;99.90;;;;;;1876885;76;21071;-75
2021/05/08 06:15:53;;;;;;;4.75;3.27;;;5.30;99.90;;;;;;1871480;76;21063;-75
2021/05/08 06:18:19;;;;;;;3.72;3.05;;;5.40;99.90;;;;;;1862326;76;21167;-76
2021/05/08 06:20:45;;;;;;;5.22;3.25;;;5.50;99.90;;;;;;1855922;76;21082;-76
2021/05/08 06:23:11;;;;;;;7.25;3.33;;;5.50;99.90;;;;;;1874127;76;21137;-76
2021/05/08 06:25:38;;;;;;;6.95;3.47;;;5.70;99.90;;;;;;1868460;76;21160;-75
2021/05/08 06:28:04;;;;;;;6.03;3.52;;;5.90;99.90;;;;;;1858528;76;21555;-77
2021/05/08 06:30:30;;;;;;;5.15;3.27;;;6.20;99.90;;;;;;1874980;76;21515;-76
2021/05/08 06:32:56;;;;;;;4.50;3.08;;;6.10;99.90;;;;;;1870628;76;21483;-76
2021/05/08 06:35:23;;;;;;;5.78;3.33;;;6.20;99.90;;;;;;1851315;76;21151;-75
2021/05/08 06:37:50;;;;;;;5.42;3.35;;;6.20;99.90;;;;;;1859067;76;21147;-74
2021/05/08 06:40:16;;;;;;;4.35;3.40;;;6.30;99.90;;;;;;1865687;76;21085;-76
2021/05/08 06:42:42;;;;;;;10.03;3.58;;;6.30;99.90;;;;;;1858041;76;21124;-74
2021/05/08 06:45:08;;;;;;;5.45;3.10;;;7.00;99.90;;;;;;1862397;76;21090;-76
2021/05/08 06:47:34;;;;;;;5.22;3.42;;;7.40;99.90;;;;;;1851366;76;21196;-77
2021/05/08 06:50:01;;;;;;;7.10;3.98;;;7.40;99.90;;;;;;1840010;76;21541;-76
2021/05/08 06:52:27;;;;;;;5.10;3.12;;;7.80;99.90;;;;;;1870461;76;21074;-76
2021/05/08 06:54:53;;;;;;;6.95;2.90;;;7.90;99.90;;;;;;1854553;76;21060;-77
2021/05/08 06:57:19;;;;;;;3.98;2.62;;;8.50;99.90;;;;;;1862398;76;21078;-76
2021/05/08 06:59:45;;;;;;;5.70;2.62;;;8.90;99.90;;;;;;1859296;76;21152;-76
2021/05/08 07:02:11;;;;;;;4.10;2.90;;;9.50;99.90;;;;;;1863579;76;21071;-77
2021/05/08 07:04:37;;;;;;;3.00;2.62;;;10.20;99.90;;;;;;1854666;76;21070;-78
2021/05/08 07:07:03;;;;;;;3.83;2.70;;;10.60;99.90;;;;;;1865181;76;21055;-78
2021/05/08 07:09:29;;;;;;;3.95;2.50;;;10.80;99.90;;;;;;1870826;76;21148;-78
2021/05/08 07:11:56;;;;;;;5.87;2.77;;;10.90;99.90;;;;;;1851314;76;21140;-78
2021/05/08 07:14:22;;;;;;;5.15;2.20;;;11.30;99.90;;;;;;1854945;76;21092;-78
2021/05/08 07:16:48;;;;;;;3.55;2.33;;;11.60;99.90;;;;;;1876668;76;21051;-77
2021/05/08 07:19:14;;;;;;;4.78;2.37;;;11.40;99.90;;;;;;1876677;76;21086;-77
2021/05/08 07:21:40;;;;;;;4.72;2.50;;;11.90;99.90;;;;;;1869755;76;21074;-78
2021/05/08 07:24:08;;;;;;;8.60;2.52;;;11.40;99.90;;;;;;1858565;76;21180;-78
2021/05/08 07:26:34;;;;;;;3.67;2.40;;;11.80;99.90;;;;;;1875409;75;21060;-78
2021/05/08 07:29:00;;;;;;;2.70;1.90;;;11.80;99.90;;;;;;1870098;76;21161;-79
2021/05/08 07:31:26;;;;;;;3.55;2.50;;;11.80;99.90;;;;;;1854534;76;21070;-77
2021/05/08 07:33:53;;;;;;;4.60;2.77;;;11.60;99.90;;;;;;1871623;76;21200;-77
2021/05/08 07:36:19;;;;;;;3.40;1.90;;;11.80;99.90;;;;;;1866060;76;21510;-75
2021/05/08 07:38:45;;;;;;;2.50;1.80;;;12.50;99.90;;;;;;1857111;76;21470;-78
2021/05/08 07:41:11;;;;;;;2.27;1.82;;;12.20;99.90;;;;;;1852118;76;21478;-78
2021/05/08 07:43:37;;;;;;;1.60;1.50;;;12.50;99.90;;;;;;1875425;76;21511;-78
2021/05/08 07:46:03;;;;;;;2.55;1.57;;;13.00;99.90;;;;;;1860444;76;21494;-77
2021/05/08 07:48:29;;;;;;;3.67;1.60;;;13.10;99.90;;;;;;1874719;76;21084;-76
2021/05/08 07:50:56;;;;;;;1.50;1.15;;;13.00;99.90;;;;;;1876628;76;21056;-76
2021/05/08 07:53:22;;;;;;;2.22;1.80;;;13.00;99.90;;;;;;1864335;76;21195;-79
2021/05/08 07:55:48;;;;;;;3.72;2.10;;;12.60;99.90;;;;;;1860597;76;21290;-78
2021/05/08 07:58:15;;;;;;;2.83;1.70;;;12.70;99.90;;;;;;1867797;76;21099;-76
2021/05/08 08:00:41;;;;;;;3.25;1.77;;;12.90;99.90;;;;;;1856041;76;21078;-79
2021/05/08 08:03:07;;;;;;;5.08;1.67;;;13.20;99.90;;;;;;1854756;76;21059;-78
2021/05/08 08:05:33;;;;;;;3.05;1.70;;;14.20;99.90;;;;;;1857155;76;21135;-78
2021/05/08 08:07:59;;;;;;;4.22;1.82;;;14.40;99.90;;;;;;1863525;76;21081;-77
2021/05/08 08:10:25;;;;;;;6.33;1.77;;;14.60;99.90;;;;;;1851417;76;21078;-77
2021/05/08 08:12:51;;;;;;;7.15;2.00;;;13.90;99.90;;;;;;1875580;76;21502;-78
2021/05/08 08:15:17;;;;;;;4.17;1.80;;;13.40;99.90;;;;;;1866659;76;21475;-78
2021/05/08 08:17:44;;;;;;;2.02;1.60;;;13.70;99.90;;;;;;1873361;76;21624;-79
2021/05/08 08:20:10;;;;;;;3.33;1.95;;;13.80;99.90;;;;;;1868695;76;21608;-79
2021/05/08 08:22:36;;;;;;;3.80;1.85;;;14.20;99.90;;;;;;1857998;76;21482;-78
2021/05/08 08:25:02;;;;;;;4.15;1.77;;;14.10;99.90;;;;;;1861508;76;21059;-76
2021/05/08 08:27:28;;;;;;;2.67;1.40;;;14.40;99.90;;;;;;1863957;76;21157;-79
2021/05/08 08:29:54;;;;;;;5.62;1.65;;;14.50;99.90;;;;;;1867370;76;21156;-78
2021/05/08 08:32:20;;;;;;;2.12;1.40;;;14.80;99.90;;;;;;1863200;76;21136;-78
2021/05/08 08:34:48;;;;;;;1.87;1.52;;;15.20;99.90;;;;;;1862741;76;21079;-78
2021/05/08 08:37:14;;;;;;;3.67;1.55;;;15.50;99.90;;;;;;1860396;76;21152;-79
2021/05/08 08:39:40;;;;;;;1.25;1.15;;;15.40;99.90;;;;;;1877370;76;21090;-79
2021/05/08 08:42:09;;;;;;;2.12;1.45;;;15.80;99.90;;;;;;1864845;76;21231;-78
2021/05/08 08:44:35;;;;;;;2.60;1.30;;;15.80;99.90;;;;;;1867563;76;21086;-76
2021/05/08 08:47:01;;;;;;;1.95;1.20;;;15.70;99.90;;;;;;1860009;76;21153;-77
2021/05/08 08:49:27;;;;;;;2.08;1.27;;;16.00;99.90;;;;;;1858804;76;21164;-75
2021/05/08 08:51:53;;;;;;;6.30;1.15;;;16.00;99.90;;;;;;1872547;76;21486;-76
2021/05/08 08:54:20;;;;;;;3.10;1.60;;;16.40;99.90;;;;;;1861791;76;21618;-76
2021/05/08 08:56:46;;;;;;;3.02;1.10;;;16.90;99.90;;;;;;1870216;76;21145;-78
2021/05/08 08:59:19;;;;;;;2.70;1.20;;;16.70;99.90;;;;;;1873276;76;21203;-78
2021/05/08 09:01:43;;;;;;;1.75;1.30;;;15.90;99.90;;;;;;1867932;76;21085;-78
2021/05/08 09:04:09;;;;;;;1.02;0.95;;;15.30;99.90;;;;;;1867196;76;21490;-77
2021/05/08 09:06:35;;;;;;;1.42;1.07;;;15.40;99.90;;;;;;1876271;76;21584;-78
2021/05/08 09:09:02;;;;;;;2.47;1.12;;;15.70;99.90;;;;;;1851737;76;21454;-77
2021/05/08 09:11:28;;;;;;;2.12;1.10;;;15.60;99.90;;;;;;1854644;76;21485;-78
2021/05/08 09:13:54;;;;;;;2.75;1.00;;;15.90;99.90;;;;;;1865612;76;21504;-78
2021/05/08 09:16:20;;;;;;;3.15;0.98;;;16.60;99.90;;;;;;1874585;76;21087;-77
2021/05/08 09:18:46;;;;;;;2.10;0.85;;;16.20;99.90;;;;;;1858942;76;21505;-78
2021/05/08 09:21:12;;;;;;;1.82;0.70;;;16.50;99.90;;;;;;1854902;76;21090;-78
2021/05/08 09:23:40;;;;;;;1.60;0.90;;;16.20;98.00;;;;;;1836927;77;21145;-78
2021/05/08 09:26:06;;;;;;;1.95;1.02;;;16.40;99.90;;;;;;1866352;76;21160;-77
2021/05/08 09:28:35;;;;;;;0.88;0.80;;;16.50;98.70;;;;;;1860269;76;21095;-77
2021/05/08 09:31:01;;;;;;;1.52;0.85;;;15.90;98.40;;;;;;1875450;76;21165;-77
2021/05/08 09:33:27;;;;;;;1.65;0.88;;;16.10;98.50;;;;;;1869697;76;21077;-77
2021/05/08 09:35:54;;;;;;;1.60;0.57;;;16.00;99.90;;;;;;1869374;76;21494;-77
2021/05/08 09:38:20;;;;;;;0.75;0.60;;;16.50;99.90;;;;;;1869180;76;21467;-78
2021/05/08 09:40:46;;;;;;;0.78;0.62;;;16.70;98.30;;;;;;1865165;76;21081;-77
2021/05/08 09:43:12;;;;;;;2.37;0.85;;;16.80;97.50;;;;;;1855939;76;21116;-74
2021/05/08 09:45:39;;;;;;;2.12;0.80;;;16.60;96.30;;;;;;1863816;76;21059;-74
2021/05/08 09:48:05;;;;;;;1.22;0.75;;;16.80;95.50;;;;;;1854841;76;21094;-74
2021/05/08 09:50:31;;;;;;;4.80;0.88;;;16.50;96.50;;;;;;1875776;76;21213;-74
2021/05/08 09:52:58;;;;;;;1.20;0.65;;;16.80;94.40;;;;;;1865745;76;21152;-74
2021/05/08 09:55:24;;;;;;;3.35;0.78;;;16.60;95.00;;;;;;1869541;76;21094;-74
2021/05/08 09:57:50;;;;;;;4.83;0.90;;;16.20;95.00;;;;;;1871327;76;21078;-74
2021/05/08 10:00:16;;;;;;;0.72;0.62;;;15.80;96.80;;;;;;1860760;76;21080;-74
2021/05/08 10:02:42;;;;;;;4.20;0.60;;;16.40;97.30;;;;;;1859145;76;21120;-74
2021/05/08 10:05:09;;;;;;;1.47;0.60;;;16.90;93.10;;;;;;1866882;76;21087;-75
2021/05/08 10:07:35;;;;;;;1.22;0.60;;;17.10;92.10;;;;;;1863955;76;21095;-74
2021/05/08 10:10:01;;;;;;;0.93;0.50;;;17.40;91.60;;;;;;1862503;76;21095;-74
2021/05/08 10:12:27;;;;;;;0.88;0.68;;;16.90;91.70;;;;;;1871929;76;21090;-75
2021/05/08 10:14:53;;;;;;;2.05;0.82;;;17.20;91.30;;;;;;1870055;76;21202;-75
2021/05/08 10:17:19;;;;;;;0.50;0.50;;;17.50;90.50;;;;;;1875956;76;21087;-75
2021/05/08 10:19:45;;;;;;;0.80;0.70;;;17.50;90.90;;;;;;1873361;76;21064;-75
2021/05/08 10:22:12;;;;;;;1.12;0.82;;;17.80;91.10;;;;;;1876684;76;21052;-75
2021/05/08 10:24:38;;;;;;;0.70;0.60;;;18.20;89.40;;;;;;1868381;76;21157;-77
2021/05/08 10:27:04;;;;;;;1.60;0.57;;;18.40;85.90;;;;;;1851315;76;21151;-74
2021/05/08 10:29:30;;;;;;;1.17;0.60;;;18.30;84.30;;;;;;1860510;76;21086;-75
2021/05/08 10:31:56;;;;;;;4.55;0.70;;;17.80;86.10;;;;;;1864102;76;21086;-74
2021/05/08 10:34:22;;;;;;;1.72;0.55;;;17.90;85.20;;;;;;1857762;76;21095;-76
2021/05/08 10:36:48;;;;;;;0.60;0.60;;;18.00;83.40;;;;;;1859135;76;21089;-76
2021/05/08 10:39:15;;;;;;;0.57;0.57;;;17.90;86.80;;;;;;1857799;76;21077;-76
2021/05/08 10:41:41;;;;;;;0.60;0.50;;;18.20;85.00;;;;;;1870092;76;21153;-76
2021/05/08 10:44:07;;;;;;;1.40;0.72;;;18.60;83.00;;;;;;1862550;76;21047;-75
2021/05/08 10:46:33;;;;;;;1.42;0.70;;;18.50;83.80;;;;;;1865942;76;21138;-76
2021/05/08 10:48:59;;;;;;;1.22;0.80;;;18.50;83.90;;;;;;1865872;76;21087;-75
2021/05/08 10:51:25;;;;;;;1.15;0.40;;;18.80;81.60;;;;;;1864532;76;21095;-75
2021/05/08 10:53:52;;;;;;;2.90;0.60;;;18.40;78.70;;;;;;1864030;76;22978;-76
2021/05/08 10:56:18;;;;;;;1.75;0.68;;;18.10;80.30;;;;;;1858489;76;21144;-76
2021/05/08 10:58:44;;;;;;;1.27;0.65;;;18.80;79.20;;;;;;1851373;76;21089;-76
2021/05/08 11:01:10;;;;;;;2.47;0.68;;;18.70;77.20;;;;;;1867480;76;21556;-75
2021/05/08 11:03:36;;;;;;;0.88;0.40;;;18.80;74.60;;;;;;1856028;76;21535;-76
2021/05/08 11:06:03;;;;;;;2.40;0.60;;;19.00;75.40;;;;;;1851469;76;21570;-75
2021/05/08 11:08:30;;;;;;;3.10;0.80;;;18.80;73.20;;;;;;1859262;76;21149;-76
2021/05/08 11:10:56;;;;;;;0.78;0.60;;;18.70;74.80;;;;;;1868924;76;21524;-77
2021/05/08 11:13:24;;;;;;;0.57;0.40;;;18.90;72.60;;;;;;1872229;76;21510;-76
2021/05/08 11:15:58;;;;;;;3.80;0.70;;;19.20;73.90;;;;;;1866978;76;21163;-78
2021/05/08 11:18:24;;;;;;;1.32;0.50;;;19.00;69.90;;;;;;1857289;76;21060;-78
2021/05/08 11:20:50;;;;;;;0.45;0.45;;;18.70;70.10;;;;;;1877667;76;21086;-77
2021/05/08 11:23:16;;;;;;;0.50;0.50;;;18.20;70.70;;;;;;1875304;76;21514;-77
2021/05/08 11:25:42;;;;;;;0.80;0.50;;;18.40;71.40;;;;;;1869112;76;21542;-74
2021/05/08 11:28:08;;;;;;;0.35;0.35;;;18.80;68.60;;;;;;1866719;76;21078;-77
2021/05/08 11:30:35;;;;;;;1.35;0.50;;;19.00;67.40;;;;;;1854599;76;21085;-77
2021/05/08 11:33:01;;;;;;;1.05;0.50;;;18.80;67.40;;;;;;1863470;76;21140;-76
2021/05/08 11:35:27;;;;;;;0.37;0.37;;;19.40;70.10;;;;;;1852553;76;21093;-77
2021/05/08 11:37:53;;;;;;;2.67;0.60;;;19.70;65.70;;;;;;1829953;76;21093;-77
2021/05/08 11:40:19;;;;;;;1.20;0.60;;;19.70;67.60;;;;;;1864387;76;21079;-77
2021/05/08 11:42:45;;;;;;;0.70;0.55;;;19.20;67.60;;;;;;1861213;76;21085;-77
2021/05/08 11:45:12;;;;;;;0.78;0.50;;;19.10;67.20;;;;;;1857737;76;21085;-77
2021/05/08 11:47:38;;;;;;;0.70;0.53;;;20.00;65.50;;;;;;1865939;76;21167;-76
2021/05/08 11:50:04;;;;;;;0.53;0.40;;;20.20;66.70;;;;;;1867162;76;21160;-77
2021/05/08 11:52:30;;;;;;;0.75;0.47;;;20.30;63.10;;;;;;1862514;76;21078;-77
2021/05/08 11:54:56;;;;;;;1.30;0.65;;;20.00;67.40;;;;;;1861435;76;21510;-77
2021/05/08 11:57:23;;;;;;;0.60;0.60;;;19.60;65.10;;;;;;1874296;76;21743;-77
2021/05/08 11:59:49;;;;;;;0.57;0.42;;;19.30;67.90;;;;;;1874098;75;21052;-77
2021/05/08 12:02:15;;;;;;;1.07;0.60;;;19.50;66.40;;;;;;1875661;76;21087;-76
2021/05/08 12:04:41;;;;;;;1.15;0.55;;;19.60;65.80;;;;;;1862786;76;21197;-76
2021/05/08 12:07:08;;;;;;;0.88;0.57;;;19.30;63.40;;;;;;1863306;76;21082;-77
2021/05/08 12:09:34;;;;;;;0.80;0.50;;;18.90;66.50;;;;;;1857443;76;21050;-76
2021/05/08 12:12:00;;;;;;;1.42;0.60;;;18.70;66.60;;;;;;1871345;76;21152;-74
2021/05/08 12:14:26;;;;;;;0.90;0.50;;;18.70;65.00;;;;;;1859801;76;21156;-77
2021/05/08 12:16:52;;;;;;;1.50;0.42;;;19.10;64.50;;;;;;1867947;75;21086;-76
2021/05/08 12:19:18;;;;;;;2.72;0.70;;;19.40;62.90;;;;;;1851649;76;21042;-77
2021/05/08 12:21:45;;;;;;;0.90;0.30;;;18.70;66.60;;;;;;1859075;76;21054;-77
2021/05/08 12:24:11;;;;;;;11.57;6.25;;;19.20;65.00;;;;;;1863043;76;21177;-77
2021/05/08 12:26:37;;;;;;;1.45;1.05;;;19.50;64.10;;;;;;1854634;76;21246;-77
2021/05/08 12:29:03;;;;;;;0.50;0.50;;;19.50;65.40;;;;;;1857689;76;21078;-77
2021/05/08 12:31:29;;;;;;;1.45;0.50;;;19.70;62.50;;;;;;1852610;76;21074;-77
2021/05/08 12:33:55;;;;;;;1.02;0.60;;;20.30;63.00;;;;;;1851511;76;21451;-77
2021/05/08 12:36:22;;;;;;;0.80;0.60;;;20.40;63.90;;;;;;1867693;76;21503;-77
2021/05/08 12:38:49;;;;;;;0.45;0.45;;;20.80;62.70;;;;;;1874815;76;21095;-77
2021/05/08 12:41:15;;;;;;;7.75;0.60;;;20.80;62.70;;;;;;1875546;76;21519;-77
2021/05/08 12:43:41;;;;;;;0.50;0.45;;;20.60;65.30;;;;;;1858603;76;21560;-78
2021/05/08 12:46:08;;;;;;;5.80;1.25;;;20.80;64.00;;;;;;1868636;76;21539;-78
2021/05/08 12:48:38;;;;;;;1.40;0.50;;;20.80;61.60;;;;;;1874173;76;21064;-78
2021/05/08 12:51:02;;;;;;;0.60;0.57;;;20.40;64.60;;;;;;1876755;76;21116;-77